Time;durP1;ratioP1;P1;durP2;ratioP2;P2;SDS_P1;SDS_P2;PMS_P1;PMS_P2;Temp;Humidity;BMP_temperature;BMP_pressure;BME280_temperature;BME280_humidity;BME280_pressure;Samples;Min_cycle;Max_cycle;Signal;HPM_P1;HPM_P2
2021/08/10 00:00:32;;;;;;;6.63;3.27;;;;;;;;;;5012698;28;20374;-46
2021/08/10 00:02:58;;;;;;;3.73;2.67;;;;;;;;;;5012973;28;20377;-46
2021/08/10 00:05:24;;;;;;;5.20;3.13;;;;;;;;;;5012857;28;20401;-46
2021/08/10 00:07:50;;;;;;;4.10;2.90;;;;;;;;;;5012527;28;20465;-46
2021/08/10 00:10:16;;;;;;;3.43;3.13;;;;;;;;;;5012384;28;20386;-46
2021/08/10 00:12:42;;;;;;;5.43;2.80;;;;;;;;;;5012821;28;20857;-46
2021/08/10 00:15:09;;;;;;;4.20;3.23;;;;;;;;;;5012609;28;20472;-46
2021/08/10 00:17:35;;;;;;;6.43;3.00;;;;;;;;;;5012280;28;20437;-46
2021/08/10 00:20:01;;;;;;;3.70;2.93;;;;;;;;;;5013108;28;20461;-45
2021/08/10 00:22:27;;;;;;;3.77;2.73;;;;;;;;;;5012642;28;20948;-46
2021/08/10 00:24:53;;;;;;;6.03;2.70;;;;;;;;;;5012328;28;20742;-46
2021/08/10 00:27:19;;;;;;;3.20;3.00;;;;;;;;;;5012311;28;20488;-45
2021/08/10 00:29:45;;;;;;;4.23;3.37;;;;;;;;;;5012145;28;20823;-46
2021/08/10 00:32:11;;;;;;;3.90;3.40;;;;;;;;;;5012368;28;20404;-46
2021/08/10 00:34:37;;;;;;;5.23;3.90;;;;;;;;;;5012215;28;20792;-46
2021/08/10 00:37:07;;;;;;;5.63;4.03;;;;;;;;;;5011204;28;20824;-45
2021/08/10 00:39:34;;;;;;;4.83;2.77;;;;;;;;;;5012066;28;20891;-47
2021/08/10 00:41:59;;;;;;;4.23;3.30;;;;;;;;;;5012140;28;20434;-45
2021/08/10 00:44:25;;;;;;;4.80;3.60;;;;;;;;;;5012213;28;20859;-46
2021/08/10 00:46:51;;;;;;;3.30;3.00;;;;;;;;;;5012097;28;20441;-46
2021/08/10 00:49:17;;;;;;;4.73;3.37;;;;;;;;;;5012506;28;20404;-46
2021/08/10 00:51:43;;;;;;;3.40;3.00;;;;;;;;;;5012723;28;20789;-46
2021/08/10 00:54:09;;;;;;;4.33;3.13;;;;;;;;;;5011881;28;20960;-46
2021/08/10 00:56:36;;;;;;;6.73;3.40;;;;;;;;;;5011859;28;20466;-46
2021/08/10 00:59:02;;;;;;;5.23;3.43;;;;;;;;;;5011655;28;20994;-46
2021/08/10 01:01:28;;;;;;;5.50;2.60;;;;;;;;;;5011248;28;20495;-46
2021/08/10 01:03:54;;;;;;;4.17;2.70;;;;;;;;;;5011019;28;20411;-46
2021/08/10 01:06:46;;;;;;;6.03;3.43;;;;;;;;;;5011324;28;20400;-46
2021/08/10 01:09:14;;;;;;;3.47;3.17;;;;;;;;;;4981289;28;20430;-46
2021/08/10 01:11:44;;;;;;;5.83;3.60;;;;;;;;;;5011483;28;20378;-46
2021/08/10 01:14:18;;;;;;;3.77;3.30;;;;;;;;;;5011447;28;20886;-46
2021/08/10 01:16:51;;;;;;;5.97;3.37;;;;;;;;;;5011365;28;20424;-46
2021/08/10 01:19:32;;;;;;;4.03;2.70;;;;;;;;;;5011527;28;20842;-46
2021/08/10 01:21:59;;;;;;;4.33;3.20;;;;;;;;;;5011192;28;21132;-46
2021/08/10 01:24:48;;;;;;;3.33;2.83;;;;;;;;;;5011176;28;20399;-46
2021/08/10 01:27:41;;;;;;;5.80;3.57;;;;;;;;;;5001055;28;20512;-46
2021/08/10 01:30:10;;;;;;;4.43;3.33;;;;;;;;;;5011083;28;20382;-46
2021/08/10 01:32:38;;;;;;;3.50;2.77;;;;;;;;;;5011438;28;20385;-46
2021/08/10 01:35:04;;;;;;;6.13;3.53;;;;;;;;;;5011091;28;20403;-46
2021/08/10 01:37:31;;;;;;;3.97;3.50;;;;;;;;;;5010846;28;20467;-46
2021/08/10 01:40:01;;;;;;;4.83;3.30;;;;;;;;;;5010891;28;20913;-46
2021/08/10 01:42:27;;;;;;;5.40;3.20;;;;;;;;;;5011142;28;20731;-46
2021/08/10 01:44:54;;;;;;;6.87;3.30;;;;;;;;;;5011031;28;20385;-45
2021/08/10 01:47:21;;;;;;;3.80;3.40;;;;;;;;;;5010910;28;20798;-45
2021/08/10 01:49:48;;;;;;;5.77;3.40;;;;;;;;;;5010936;28;20484;-46
2021/08/10 01:52:19;;;;;;;4.37;3.63;;;;;;;;;;5010925;28;20385;-46
2021/08/10 01:54:45;;;;;;;5.40;3.80;;;;;;;;;;5011010;28;20752;-46
2021/08/10 01:57:12;;;;;;;6.50;3.87;;;;;;;;;;5010715;28;20482;-46
2021/08/10 01:59:38;;;;;;;5.23;3.30;;;;;;;;;;5011045;28;20403;-46
2021/08/10 02:02:06;;;;;;;5.50;3.60;;;;;;;;;;5011061;28;20398;-46
2021/08/10 02:04:32;;;;;;;6.03;3.30;;;;;;;;;;5010784;28;20912;-45
2021/08/10 02:06:58;;;;;;;3.70;3.40;;;;;;;;;;5010522;28;20455;-45
2021/08/10 02:09:24;;;;;;;5.23;3.20;;;;;;;;;;5010725;28;20411;-45
2021/08/10 02:11:52;;;;;;;5.47;3.33;;;;;;;;;;5010629;28;20420;-46
2021/08/10 02:14:25;;;;;;;8.00;3.43;;;;;;;;;;5010722;28;20385;-46
2021/08/10 02:16:56;;;;;;;5.30;3.17;;;;;;;;;;5010648;28;20458;-46
2021/08/10 02:19:22;;;;;;;4.60;3.07;;;;;;;;;;5010621;28;20393;-44
2021/08/10 02:21:49;;;;;;;5.53;3.50;;;;;;;;;;5010674;28;20379;-46
2021/08/10 02:24:26;;;;;;;8.93;3.40;;;;;;;;;;5010813;28;20433;-46
2021/08/10 02:26:57;;;;;;;6.47;3.67;;;;;;;;;;5010458;28;20755;-46
2021/08/10 02:29:26;;;;;;;3.93;3.27;;;;;;;;;;5010515;28;20545;-46
2021/08/10 02:31:52;;;;;;;4.13;3.10;;;;;;;;;;5010400;28;20415;-45
2021/08/10 02:34:20;;;;;;;3.50;3.00;;;;;;;;;;5010794;28;20414;-46
2021/08/10 02:36:46;;;;;;;7.20;2.90;;;;;;;;;;5010615;28;20431;-46
2021/08/10 02:39:12;;;;;;;4.87;3.40;;;;;;;;;;5010599;28;20775;-46
2021/08/10 02:41:40;;;;;;;6.67;3.40;;;;;;;;;;5010275;28;20392;-46
2021/08/10 02:44:07;;;;;;;7.07;3.37;;;;;;;;;;5010576;28;20406;-46
2021/08/10 02:46:33;;;;;;;7.20;3.50;;;;;;;;;;5010249;28;20869;-45
2021/08/10 02:48:59;;;;;;;4.03;3.50;;;;;;;;;;5010378;28;20494;-45
2021/08/10 02:51:25;;;;;;;4.13;3.20;;;;;;;;;;5010159;28;20409;-46
2021/08/10 02:53:51;;;;;;;4.03;2.80;;;;;;;;;;5010655;28;20377;-45
2021/08/10 02:56:20;;;;;;;3.70;3.40;;;;;;;;;;5010266;28;20443;-46
2021/08/10 02:59:05;;;;;;;4.23;3.37;;;;;;;;;;5010345;28;20505;-46
2021/08/10 03:01:36;;;;;;;3.67;3.37;;;;;;;;;;5013569;28;20395;-45
2021/08/10 03:04:03;;;;;;;4.10;3.40;;;;;;;;;;5014112;28;20819;-46
2021/08/10 03:06:32;;;;;;;6.00;3.67;;;;;;;;;;5013758;28;20384;-46
2021/08/10 03:09:00;;;;;;;4.60;4.20;;;;;;;;;;5013879;28;20481;-45
2021/08/10 03:11:38;;;;;;;5.50;3.63;;;;;;;;;;5013497;28;20431;-46
2021/08/10 03:14:06;;;;;;;5.47;3.77;;;;;;;;;;5013756;28;20414;-45
2021/08/10 03:16:32;;;;;;;9.00;3.80;;;;;;;;;;5013496;28;20454;-45
2021/08/10 03:18:59;;;;;;;6.60;4.03;;;;;;;;;;5013583;28;20430;-45
2021/08/10 03:21:26;;;;;;;5.67;3.17;;;;;;;;;;5013360;28;20407;-46
2021/08/10 03:23:54;;;;;;;4.90;3.50;;;;;;;;;;5013941;28;20389;-45
2021/08/10 03:26:20;;;;;;;3.30;2.77;;;;;;;;;;5013337;28;20461;-46
2021/08/10 03:28:47;;;;;;;5.90;3.47;;;;;;;;;;5013603;28;20469;-45
2021/08/10 03:31:13;;;;;;;4.03;3.63;;;;;;;;;;5013187;28;20416;-46
2021/08/10 03:33:40;;;;;;;8.47;3.17;;;;;;;;;;5013288;28;20435;-46
2021/08/10 03:36:06;;;;;;;4.23;3.90;;;;;;;;;;5013237;28;21013;-46
2021/08/10 03:38:34;;;;;;;5.43;3.70;;;;;;;;;;5013160;28;20478;-46
2021/08/10 03:41:00;;;;;;;8.50;4.00;;;;;;;;;;5013326;28;20432;-46
2021/08/10 03:43:27;;;;;;;4.83;3.60;;;;;;;;;;5013225;28;20428;-46
2021/08/10 03:45:53;;;;;;;8.97;4.50;;;;;;;;;;5013122;28;20389;-46
2021/08/10 03:48:20;;;;;;;5.70;4.67;;;;;;;;;;5013272;28;20413;-45
2021/08/10 03:50:46;;;;;;;9.83;4.93;;;;;;;;;;5012897;28;20896;-46
2021/08/10 03:53:13;;;;;;;8.37;4.70;;;;;;;;;;5012890;28;20405;-45
2021/08/10 03:55:39;;;;;;;8.33;4.10;;;;;;;;;;5012867;28;20379;-46
2021/08/10 03:58:06;;;;;;;8.00;5.00;;;;;;;;;;5012827;28;20430;-46
2021/08/10 04:00:34;;;;;;;19.80;5.70;;;;;;;;;;5012708;28;20959;-46
2021/08/10 04:03:00;;;;;;;5.27;4.43;;;;;;;;;;5012799;28;20403;-46
2021/08/10 04:05:27;;;;;;;12.53;6.57;;;;;;;;;;5012779;28;20928;-46
2021/08/10 04:07:53;;;;;;;10.20;6.00;;;;;;;;;;5012432;28;20426;-45
2021/08/10 04:10:19;;;;;;;7.00;5.17;;;;;;;;;;5012550;28;20456;-45
2021/08/10 04:12:45;;;;;;;8.23;5.90;;;;;;;;;;5011536;28;20403;-46
2021/08/10 04:15:12;;;;;;;10.67;5.50;;;;;;;;;;5012655;28;20821;-46
2021/08/10 04:17:39;;;;;;;10.50;5.90;;;;;;;;;;5012267;28;20496;-46
2021/08/10 04:20:06;;;;;;;8.70;5.50;;;;;;;;;;5012303;28;20409;-46
2021/08/10 04:22:32;;;;;;;8.50;5.57;;;;;;;;;;5012183;28;20438;-46
2021/08/10 04:24:58;;;;;;;8.80;5.37;;;;;;;;;;5012496;28;20456;-47
2021/08/10 04:27:24;;;;;;;6.40;4.73;;;;;;;;;;5012224;28;20405;-46
2021/08/10 04:29:50;;;;;;;8.70;4.67;;;;;;;;;;5012146;28;20410;-46
2021/08/10 04:32:16;;;;;;;5.20;4.20;;;;;;;;;;5012454;28;20403;-46
2021/08/10 04:34:42;;;;;;;8.57;4.70;;;;;;;;;;5012286;28;20388;-46
2021/08/10 04:37:08;;;;;;;4.67;4.27;;;;;;;;;;5011863;28;20463;-46
2021/08/10 04:39:34;;;;;;;7.63;4.73;;;;;;;;;;5012297;28;20399;-46
2021/08/10 04:42:00;;;;;;;5.93;4.20;;;;;;;;;;5012122;28;20820;-46
2021/08/10 04:44:26;;;;;;;6.70;4.00;;;;;;;;;;5012152;28;20372;-45
2021/08/10 04:46:52;;;;;;;15.47;5.90;;;;;;;;;;5011901;28;20527;-45
2021/08/10 04:49:18;;;;;;;7.40;4.57;;;;;;;;;;5011892;28;20414;-45
2021/08/10 04:51:44;;;;;;;6.33;4.20;;;;;;;;;;5011772;28;20379;-46
2021/08/10 04:54:16;;;;;;;6.10;4.47;;;;;;;;;;5012149;28;20801;-45
2021/08/10 04:56:42;;;;;;;4.27;3.87;;;;;;;;;;5011740;28;20859;-46
2021/08/10 04:59:07;;;;;;;7.20;4.37;;;;;;;;;;5011676;28;20442;-46
2021/08/10 05:01:33;;;;;;;5.97;3.90;;;;;;;;;;5011860;28;20391;-46
2021/08/10 05:03:59;;;;;;;5.90;3.97;;;;;;;;;;5011508;28;20378;-46
2021/08/10 05:06:25;;;;;;;6.20;4.40;;;;;;;;;;5011673;28;20880;-46
2021/08/10 05:08:51;;;;;;;6.00;4.13;;;;;;;;;;5011520;28;20524;-46
2021/08/10 05:11:17;;;;;;;10.50;5.10;;;;;;;;;;5011893;28;20403;-46
2021/08/10 05:13:43;;;;;;;5.20;4.70;;;;;;;;;;5011401;28;20403;-46
2021/08/10 05:16:09;;;;;;;6.97;4.33;;;;;;;;;;5011385;28;20462;-46
2021/08/10 05:18:35;;;;;;;5.90;4.63;;;;;;;;;;5011281;28;20404;-46
2021/08/10 05:21:01;;;;;;;4.70;4.30;;;;;;;;;;5011177;28;20410;-45
2021/08/10 05:23:27;;;;;;;6.53;4.20;;;;;;;;;;5011158;28;20411;-45
2021/08/10 05:25:53;;;;;;;5.07;4.10;;;;;;;;;;5011498;28;20411;-46
2021/08/10 05:28:19;;;;;;;5.47;4.27;;;;;;;;;;5011288;28;20439;-46
2021/08/10 05:30:45;;;;;;;11.70;5.00;;;;;;;;;;5011082;28;20461;-46
2021/08/10 05:33:11;;;;;;;6.87;4.47;;;;;;;;;;5011141;28;20919;-46
2021/08/10 05:35:38;;;;;;;7.97;3.80;;;;;;;;;;5011088;28;20482;-46
2021/08/10 05:38:04;;;;;;;7.43;4.10;;;;;;;;;;5011042;28;20421;-46
2021/08/10 05:40:30;;;;;;;9.13;4.57;;;;;;;;;;5011022;28;20808;-45
2021/08/10 05:42:56;;;;;;;7.80;4.13;;;;;;;;;;5011483;28;20407;-46
2021/08/10 05:45:22;;;;;;;3.90;3.60;;;;;;;;;;5011033;28;20465;-46
2021/08/10 05:47:47;;;;;;;6.80;4.37;;;;;;;;;;5010730;28;20437;-45
2021/08/10 05:50:13;;;;;;;6.37;4.20;;;;;;;;;;5010893;28;20800;-46
2021/08/10 05:52:39;;;;;;;9.77;3.30;;;;;;;;;;5011073;28;20800;-46
2021/08/10 05:55:05;;;;;;;7.00;3.43;;;;;;;;;;5010957;28;20771;-46
2021/08/10 05:57:31;;;;;;;4.77;4.10;;;;;;;;;;5010823;28;20465;-46
2021/08/10 05:59:57;;;;;;;5.87;3.90;;;;;;;;;;5010637;28;20389;-45
2021/08/10 06:02:23;;;;;;;4.37;4.00;;;;;;;;;;5010737;28;20435;-45
2021/08/10 06:04:49;;;;;;;4.70;4.10;;;;;;;;;;5010996;28;20399;-46
2021/08/10 06:07:15;;;;;;;4.47;4.07;;;;;;;;;;5010762;28;20427;-46
2021/08/10 06:09:43;;;;;;;5.87;3.63;;;;;;;;;;5010623;28;20384;-45
2021/08/10 06:12:10;;;;;;;4.13;3.73;;;;;;;;;;5011071;28;20378;-46
2021/08/10 06:14:36;;;;;;;6.33;3.47;;;;;;;;;;5010995;28;20386;-45
2021/08/10 06:17:02;;;;;;;5.40;4.27;;;;;;;;;;5010498;28;20467;-46
2021/08/10 06:19:27;;;;;;;7.20;4.43;;;;;;;;;;5010977;28;20385;-46
2021/08/10 06:21:54;;;;;;;7.60;3.90;;;;;;;;;;5010687;28;20856;-46
2021/08/10 06:24:20;;;;;;;5.13;3.93;;;;;;;;;;5011034;28;20425;-46
2021/08/10 06:26:46;;;;;;;7.30;4.87;;;;;;;;;;5010807;28;20740;-46
2021/08/10 06:29:12;;;;;;;5.07;4.13;;;;;;;;;;5011115;28;20802;-46
2021/08/10 06:31:38;;;;;;;5.33;4.80;;;;;;;;;;5010478;28;20943;-45
2021/08/10 06:34:04;;;;;;;8.90;4.67;;;;;;;;;;5010630;28;20374;-46
2021/08/10 06:36:30;;;;;;;4.93;4.23;;;;;;;;;;5013693;28;20462;-45
2021/08/10 06:38:56;;;;;;;5.23;3.60;;;;;;;;;;5014556;28;20770;-45
2021/08/10 06:41:22;;;;;;;6.00;4.13;;;;;;;;;;5014166;28;20499;-46
2021/08/10 06:43:48;;;;;;;9.17;4.10;;;;;;;;;;5014494;28;20697;-46
2021/08/10 06:46:14;;;;;;;5.43;4.23;;;;;;;;;;5014078;28;20482;-46
2021/08/10 06:48:40;;;;;;;4.23;3.83;;;;;;;;;;5014267;28;20403;-46
2021/08/10 06:51:06;;;;;;;9.67;4.40;;;;;;;;;;5014028;28;20388;-46
2021/08/10 06:53:32;;;;;;;4.83;4.33;;;;;;;;;;5014946;28;20407;-46
2021/08/10 06:55:58;;;;;;;6.13;4.40;;;;;;;;;;5013925;28;20469;-46
2021/08/10 06:58:24;;;;;;;5.90;4.80;;;;;;;;;;5014057;28;20426;-46
2021/08/10 07:00:50;;;;;;;7.40;4.80;;;;;;;;;;5013668;28;20830;-46
2021/08/10 07:03:16;;;;;;;6.07;4.67;;;;;;;;;;5013487;28;20421;-46
2021/08/10 07:05:42;;;;;;;6.63;4.77;;;;;;;;;;5013548;28;20410;-46
2021/08/10 07:08:08;;;;;;;8.63;4.57;;;;;;;;;;5012820;28;20447;-46
2021/08/10 07:10:33;;;;;;;5.57;4.97;;;;;;;;;;5013133;28;20374;-45
2021/08/10 07:12:59;;;;;;;7.90;5.10;;;;;;;;;;5012986;28;20396;-44
2021/08/10 07:15:25;;;;;;;8.10;4.77;;;;;;;;;;5013118;28;20405;-46
2021/08/10 07:17:51;;;;;;;5.33;4.03;;;;;;;;;;5012860;28;20453;-46
2021/08/10 07:20:17;;;;;;;4.90;4.40;;;;;;;;;;5012774;28;20387;-46
2021/08/10 07:22:43;;;;;;;4.67;4.07;;;;;;;;;;5013013;28;20749;-45
2021/08/10 07:25:10;;;;;;;4.97;4.10;;;;;;;;;;5012965;28;20401;-46
2021/08/10 07:27:36;;;;;;;4.90;4.40;;;;;;;;;;5012718;28;20493;-46
2021/08/10 07:30:02;;;;;;;7.20;4.43;;;;;;;;;;5012579;28;20979;-46
2021/08/10 07:32:28;;;;;;;4.67;3.40;;;;;;;;;;5012999;28;20393;-46
2021/08/10 07:34:54;;;;;;;4.60;4.20;;;;;;;;;;5012954;28;20435;-46
2021/08/10 07:37:20;;;;;;;5.20;4.27;;;;;;;;;;5012353;28;20544;-46
2021/08/10 07:39:46;;;;;;;5.30;3.83;;;;;;;;;;5013102;28;20425;-46
2021/08/10 07:42:12;;;;;;;5.33;3.90;;;;;;;;;;5013115;28;20879;-45
2021/08/10 07:44:38;;;;;;;10.43;3.90;;;;;;;;;;5013198;28;20409;-46
2021/08/10 07:47:06;;;;;;;5.13;3.67;;;;;;;;;;5013126;28;20485;-46
2021/08/10 07:49:32;;;;;;;5.50;3.57;;;;;;;;;;5013141;28;20377;-47
2021/08/10 07:51:58;;;;;;;4.13;3.83;;;;;;;;;;5013120;28;20514;-46
2021/08/10 07:54:24;;;;;;;4.53;4.13;;;;;;;;;;5012887;28;20407;-46
2021/08/10 07:56:50;;;;;;;3.67;3.37;;;;;;;;;;5012690;28;20511;-46
2021/08/10 07:59:16;;;;;;;4.97;4.10;;;;;;;;;;5012784;28;20910;-47
2021/08/10 08:01:41;;;;;;;4.90;3.90;;;;;;;;;;5012538;28;20803;-46
2021/08/10 08:04:07;;;;;;;4.83;3.33;;;;;;;;;;5012100;28;20870;-46
2021/08/10 08:06:33;;;;;;;5.50;3.20;;;;;;;;;;5012826;28;20405;-47
2021/08/10 08:09:00;;;;;;;4.40;3.20;;;;;;;;;;5012773;28;20429;-47
2021/08/10 08:11:26;;;;;;;3.10;2.80;;;;;;;;;;5012525;28;20406;-47
2021/08/10 08:13:52;;;;;;;6.97;3.23;;;;;;;;;;5012609;28;20403;-46
2021/08/10 08:16:18;;;;;;;5.93;3.10;;;;;;;;;;5012678;28;20469;-47
2021/08/10 08:18:44;;;;;;;2.70;2.60;;;;;;;;;;5012520;28;20424;-47
2021/08/10 08:21:10;;;;;;;3.10;2.73;;;;;;;;;;5012512;28;20888;-46
2021/08/10 08:23:38;;;;;;;3.40;2.80;;;;;;;;;;5012460;28;20957;-47
2021/08/10 08:26:05;;;;;;;2.87;2.53;;;;;;;;;;5012429;28;20418;-47
2021/08/10 08:28:31;;;;;;;3.10;2.70;;;;;;;;;;5012374;28;20468;-46
2021/08/10 08:30:57;;;;;;;2.70;2.50;;;;;;;;;;5012273;28;20501;-46
2021/08/10 08:33:23;;;;;;;4.00;2.80;;;;;;;;;;5012393;28;20470;-46
2021/08/10 08:35:49;;;;;;;2.80;2.60;;;;;;;;;;5012057;28;20419;-46
2021/08/10 08:38:16;;;;;;;5.80;2.87;;;;;;;;;;5012091;28;20453;-46
2021/08/10 08:40:44;;;;;;;3.10;2.43;;;;;;;;;;5012014;28;20907;-47
2021/08/10 08:43:11;;;;;;;3.30;2.50;;;;;;;;;;5012399;28;20493;-46
2021/08/10 08:45:37;;;;;;;4.30;2.70;;;;;;;;;;5012358;28;20407;-47
2021/08/10 08:48:04;;;;;;;4.10;2.40;;;;;;;;;;5010878;28;20964;-47
2021/08/10 08:50:32;;;;;;;4.80;3.27;;;;;;;;;;5011927;28;20407;-46
2021/08/10 08:52:58;;;;;;;5.57;3.03;;;;;;;;;;5012045;28;20406;-47
2021/08/10 08:55:25;;;;;;;8.17;3.20;;;;;;;;;;5011779;28;20410;-46
2021/08/10 08:57:51;;;;;;;4.63;3.20;;;;;;;;;;5011269;28;20548;-46
2021/08/10 09:00:18;;;;;;;3.50;3.20;;;;;;;;;;5011618;28;20438;-46
2021/08/10 09:02:44;;;;;;;4.77;3.37;;;;;;;;;;5011934;28;20404;-47
2021/08/10 09:05:10;;;;;;;3.73;3.43;;;;;;;;;;5011686;28;20894;-46
2021/08/10 09:07:36;;;;;;;5.67;3.30;;;;;;;;;;5011623;28;20453;-46
2021/08/10 09:10:06;;;;;;;4.97;3.53;;;;;;;;;;5011327;28;20494;-46
2021/08/10 09:12:40;;;;;;;3.63;3.23;;;;;;;;;;5011596;28;20441;-46
2021/08/10 09:15:07;;;;;;;5.40;2.80;;;;;;;;;;5011558;28;20411;-45
2021/08/10 09:17:33;;;;;;;5.90;3.87;;;;;;;;;;5011267;28;20488;-46
2021/08/10 09:20:02;;;;;;;7.73;3.37;;;;;;;;;;5011311;28;20454;-46
2021/08/10 09:22:33;;;;;;;4.03;3.63;;;;;;;;;;5011225;28;20913;-46
2021/08/10 09:25:04;;;;;;;6.03;3.73;;;;;;;;;;5011433;28;20452;-46
2021/08/10 09:27:30;;;;;;;4.23;3.40;;;;;;;;;;5011208;28;20505;-46
2021/08/10 09:29:56;;;;;;;4.47;3.50;;;;;;;;;;5011180;28;20482;-46
2021/08/10 09:32:23;;;;;;;3.30;3.00;;;;;;;;;;5011276;28;20433;-46
2021/08/10 09:35:07;;;;;;;3.00;2.80;;;;;;;;;;5011204;28;20407;-46
2021/08/10 09:37:33;;;;;;;5.73;3.00;;;;;;;;;;5010823;28;20835;-46
2021/08/10 09:39:59;;;;;;;5.30;3.30;;;;;;;;;;5011202;28;20402;-46
2021/08/10 09:42:26;;;;;;;3.50;3.17;;;;;;;;;;5011075;28;20418;-46
2021/08/10 09:44:58;;;;;;;3.60;2.93;;;;;;;;;;5011174;28;20910;-46
2021/08/10 09:47:31;;;;;;;4.03;3.43;;;;;;;;;;5010795;28;20437;-45
2021/08/10 09:49:57;;;;;;;3.20;3.00;;;;;;;;;;5010846;28;20510;-46
2021/08/10 09:52:32;;;;;;;3.10;2.80;;;;;;;;;;5010963;28;20502;-46
2021/08/10 09:55:11;;;;;;;4.93;3.50;;;;;;;;;;5010990;28;20414;-46
2021/08/10 09:57:40;;;;;;;4.10;2.90;;;;;;;;;;5010701;28;20897;-45
2021/08/10 10:00:06;;;;;;;4.90;3.03;;;;;;;;;;5010743;28;20415;-46
2021/08/10 10:02:32;;;;;;;4.10;3.50;;;;;;;;;;5010965;28;20399;-46
2021/08/10 10:04:58;;;;;;;4.93;4.00;;;;;;;;;;5010847;28;20907;-46
2021/08/10 10:07:25;;;;;;;4.73;3.10;;;;;;;;;;5010900;28;20439;-46
2021/08/10 10:09:52;;;;;;;3.47;3.17;;;;;;;;;;5011185;28;20497;-45
2021/08/10 10:12:19;;;;;;;4.57;3.60;;;;;;;;;;5014901;28;20406;-46
2021/08/10 10:14:46;;;;;;;4.13;3.00;;;;;;;;;;5015113;28;20407;-46
2021/08/10 10:17:13;;;;;;;5.90;3.60;;;;;;;;;;5014666;28;20831;-46
2021/08/10 10:19:43;;;;;;;4.13;3.43;;;;;;;;;;5014573;28;20410;-46
2021/08/10 10:22:14;;;;;;;3.80;3.47;;;;;;;;;;5014782;28;20430;-46
2021/08/10 10:24:45;;;;;;;6.13;3.63;;;;;;;;;;5014736;28;20890;-46
2021/08/10 10:27:12;;;;;;;4.57;4.00;;;;;;;;;;5014853;28;20434;-46
2021/08/10 10:29:40;;;;;;;5.67;3.63;;;;;;;;;;5014668;28;20411;-45
2021/08/10 10:32:06;;;;;;;6.43;4.03;;;;;;;;;;5014961;28;20475;-46
2021/08/10 10:34:32;;;;;;;4.73;4.33;;;;;;;;;;5014802;28;20399;-46
2021/08/10 10:37:00;;;;;;;7.80;3.60;;;;;;;;;;5014287;28;20468;-46
2021/08/10 10:39:34;;;;;;;3.40;3.10;;;;;;;;;;5014416;28;20400;-46
2021/08/10 10:42:06;;;;;;;6.10;4.13;;;;;;;;;;5014258;28;20895;-46
2021/08/10 10:44:35;;;;;;;5.63;4.10;;;;;;;;;;5014371;28;20404;-46
2021/08/10 10:47:25;;;;;;;6.57;4.87;;;;;;;;;;5014195;28;20449;-46
2021/08/10 10:49:56;;;;;;;4.47;4.07;;;;;;;;;;5014065;28;20412;-46
2021/08/10 10:52:23;;;;;;;6.30;4.37;;;;;;;;;;5014370;28;20440;-46
2021/08/10 10:54:49;;;;;;;5.60;5.17;;;;;;;;;;5014131;28;20486;-45
2021/08/10 10:57:30;;;;;;;4.93;4.40;;;;;;;;;;5014012;28;20468;-46
2021/08/10 10:59:56;;;;;;;4.23;3.77;;;;;;;;;;5014002;28;20898;-46
2021/08/10 11:02:25;;;;;;;5.83;4.03;;;;;;;;;;5014007;28;20431;-47
2021/08/10 11:05:23;;;;;;;4.60;4.20;;;;;;;;;;5014122;28;20405;-45
2021/08/10 11:07:52;;;;;;;4.77;3.60;;;;;;;;;;4980706;28;21013;-47
2021/08/10 11:10:37;;;;;;;5.60;4.17;;;;;;;;;;5013679;28;20906;-47
2021/08/10 11:13:05;;;;;;;3.57;3.27;;;;;;;;;;5014076;28;20391;-46
2021/08/10 11:15:46;;;;;;;6.97;4.07;;;;;;;;;;5018995;28;20781;-47
2021/08/10 11:18:12;;;;;;;5.33;3.10;;;;;;;;;;5013759;28;20859;-46
2021/08/10 11:20:39;;;;;;;4.03;3.60;;;;;;;;;;5012335;28;20836;-47
2021/08/10 11:23:24;;;;;;;7.87;6.70;;;;;;;;;;5013180;28;20838;-47
2021/08/10 11:25:59;;;;;;;6.27;3.90;;;;;;;;;;5012518;28;20402;-46
2021/08/10 11:28:25;;;;;;;4.30;3.53;;;;;;;;;;5013248;28;20769;-46
2021/08/10 11:30:51;;;;;;;4.10;3.67;;;;;;;;;;5013189;28;20406;-46
2021/08/10 11:33:32;;;;;;;5.23;3.80;;;;;;;;;;5013736;28;20397;-46
2021/08/10 11:36:13;;;;;;;3.50;3.20;;;;;;;;;;5013113;28;20458;-46
2021/08/10 11:38:45;;;;;;;5.30;3.70;;;;;;;;;;5013277;28;20449;-45
2021/08/10 11:41:12;;;;;;;4.53;3.50;;;;;;;;;;5012951;28;20399;-46
2021/08/10 11:43:41;;;;;;;5.47;4.27;;;;;;;;;;5013257;28;20407;-46
2021/08/10 11:46:08;;;;;;;5.60;3.73;;;;;;;;;;5013062;28;20723;-45
2021/08/10 11:48:47;;;;;;;4.63;4.23;;;;;;;;;;5012963;28;20434;-46
2021/08/10 11:51:16;;;;;;;3.80;3.50;;;;;;;;;;5013178;28;20808;-46
2021/08/10 11:53:42;;;;;;;4.30;3.47;;;;;;;;;;5012801;28;20403;-46
2021/08/10 11:56:27;;;;;;;4.50;3.33;;;;;;;;;;5011803;28;20454;-46
2021/08/10 11:58:53;;;;;;;4.63;3.90;;;;;;;;;;5012620;28;20958;-46
2021/08/10 12:01:20;;;;;;;4.00;3.47;;;;;;;;;;5012605;28;20403;-46
2021/08/10 12:03:46;;;;;;;3.87;3.57;;;;;;;;;;5013484;28;20763;-46
2021/08/10 12:06:12;;;;;;;3.80;3.50;;;;;;;;;;5012677;28;20478;-46
2021/08/10 12:08:39;;;;;;;4.57;4.17;;;;;;;;;;5012432;28;20427;-46
2021/08/10 12:11:05;;;;;;;7.47;4.20;;;;;;;;;;5012293;28;20411;-46
2021/08/10 12:13:31;;;;;;;4.10;3.50;;;;;;;;;;5012704;28;20465;-46
2021/08/10 12:15:57;;;;;;;4.40;3.40;;;;;;;;;;5012463;28;20457;-47
2021/08/10 12:18:24;;;;;;;4.67;3.63;;;;;;;;;;5012780;28;20510;-46
2021/08/10 12:20:58;;;;;;;3.87;3.57;;;;;;;;;;5012363;28;20423;-46
2021/08/10 12:23:24;;;;;;;5.13;3.20;;;;;;;;;;5012578;28;20490;-46
2021/08/10 12:25:50;;;;;;;4.30;3.27;;;;;;;;;;5012415;28;20407;-46
2021/08/10 12:28:16;;;;;;;3.07;2.87;;;;;;;;;;5012416;28;20415;-46
2021/08/10 12:30:42;;;;;;;9.43;3.40;;;;;;;;;;5012148;28;20399;-47
2021/08/10 12:33:20;;;;;;;6.23;3.13;;;;;;;;;;5011698;28;20399;-47
2021/08/10 12:35:56;;;;;;;4.23;3.50;;;;;;;;;;5012566;28;20403;-46
2021/08/10 12:38:23;;;;;;;4.33;3.30;;;;;;;;;;5011523;28;20435;-46
2021/08/10 12:40:49;;;;;;;3.40;3.20;;;;;;;;;;5012216;28;20406;-46
2021/08/10 12:43:15;;;;;;;4.93;3.93;;;;;;;;;;5012436;28;20406;-46
2021/08/10 12:45:41;;;;;;;5.33;3.20;;;;;;;;;;5012182;28;20829;-47
2021/08/10 12:48:25;;;;;;;3.97;3.07;;;;;;;;;;5011942;28;20415;-46
2021/08/10 12:50:55;;;;;;;3.70;3.30;;;;;;;;;;5011578;28;20399;-47
2021/08/10 12:53:28;;;;;;;3.47;3.17;;;;;;;;;;5012552;28;20399;-46
2021/08/10 12:55:54;;;;;;;3.93;3.30;;;;;;;;;;5011187;28;20398;-47
2021/08/10 12:58:20;;;;;;;4.03;3.20;;;;;;;;;;5008706;28;20431;-46
2021/08/10 13:01:05;;;;;;;5.43;3.70;;;;;;;;;;5010943;28;20595;-46
2021/08/10 13:03:32;;;;;;;7.43;3.30;;;;;;;;;;5011736;28;20433;-46
2021/08/10 13:05:59;;;;;;;4.40;3.30;;;;;;;;;;5011652;28;20453;-47
2021/08/10 13:08:25;;;;;;;6.10;5.70;;;;;;;;;;5011686;28;20843;-46
2021/08/10 13:10:51;;;;;;;3.67;3.07;;;;;;;;;;5011434;28;20783;-46
2021/08/10 13:13:30;;;;;;;14.83;13.67;;;;;;;;;;5011577;28;20533;-46
2021/08/10 13:15:57;;;;;;;25.07;17.43;;;;;;;;;;5011334;28;20910;-46
2021/08/10 13:18:25;;;;;;;3.83;3.47;;;;;;;;;;5011426;28;20457;-46
2021/08/10 13:20:55;;;;;;;11.30;3.80;;;;;;;;;;5011329;28;20533;-47
2021/08/10 13:23:22;;;;;;;7.73;3.30;;;;;;;;;;5011340;28;20407;-46
2021/08/10 13:26:05;;;;;;;3.63;2.77;;;;;;;;;;5011328;28;20542;-45
2021/08/10 13:28:56;;;;;;;5.07;3.33;;;;;;;;;;5011250;28;20480;-46
2021/08/10 13:31:27;;;;;;;5.47;3.10;;;;;;;;;;5011305;28;20391;-46
2021/08/10 13:33:55;;;;;;;7.37;6.77;;;;;;;;;;5010977;28;21017;-46
2021/08/10 13:36:22;;;;;;;135.57;50.07;;;;;;;;;;5010925;28;20447;-46
2021/08/10 13:38:48;;;;;;;4.03;3.70;;;;;;;;;;5009984;28;20446;-46
2021/08/10 13:41:14;;;;;;;4.97;3.30;;;;;;;;;;5010839;28;20403;-45
2021/08/10 13:43:40;;;;;;;3.90;3.30;;;;;;;;;;5010836;28;20912;-46
2021/08/10 13:46:06;;;;;;;38.53;1.70;;;;;;;;;;5011037;28;20403;-46
2021/08/10 13:48:32;;;;;;;53.70;3.63;;;;;;;;;;5010851;28;20433;-47
2021/08/10 13:50:58;;;;;;;48.23;3.60;;;;;;;;;;5010738;28;20410;-46
2021/08/10 13:53:26;;;;;;;88.17;12.77;;;;;;;;;;5010909;28;20789;-47
2021/08/10 13:55:52;;;;;;;39.30;1.63;;;;;;;;;;5011112;28;20411;-46
2021/08/10 13:58:18;;;;;;;38.70;2.17;;;;;;;;;;5011152;28;20608;-45
2021/08/10 14:00:44;;;;;;;43.10;2.40;;;;;;;;;;5011000;28;20927;-45
2021/08/10 14:03:11;;;;;;;45.73;2.90;;;;;;;;;;5011115;28;20407;-45
2021/08/10 14:05:37;;;;;;;44.10;2.77;;;;;;;;;;5010528;28;20407;-46
2021/08/10 14:08:03;;;;;;;46.27;2.60;;;;;;;;;;5010892;28;20427;-46
2021/08/10 14:10:29;;;;;;;49.37;3.30;;;;;;;;;;5010677;28;20406;-46
2021/08/10 14:12:55;;;;;;;47.50;3.37;;;;;;;;;;5010638;28;20465;-46
2021/08/10 14:15:21;;;;;;;48.90;3.47;;;;;;;;;;5009869;28;20842;-45
2021/08/10 14:17:47;;;;;;;47.17;3.47;;;;;;;;;;5009951;28;20479;-45
2021/08/10 14:20:13;;;;;;;46.47;3.23;;;;;;;;;;5010141;28;20412;-45
2021/08/10 14:22:40;;;;;;;48.40;3.70;;;;;;;;;;5010906;28;20406;-45
2021/08/10 14:25:06;;;;;;;44.90;2.63;;;;;;;;;;5010675;28;20546;-45
2021/08/10 14:27:32;;;;;;;44.83;2.80;;;;;;;;;;5010376;28;20573;-46
2021/08/10 14:30:01;;;;;;;46.87;2.77;;;;;;;;;;5009764;28;20490;-45
2021/08/10 14:32:27;;;;;;;47.27;2.80;;;;;;;;;;5010906;28;20776;-45
2021/08/10 14:34:53;;;;;;;46.90;2.67;;;;;;;;;;5010339;28;20414;-46
2021/08/10 14:37:19;;;;;;;46.60;2.83;;;;;;;;;;5010278;28;20549;-45
2021/08/10 14:39:45;;;;;;;47.10;2.60;;;;;;;;;;5010401;28;20410;-46
2021/08/10 14:42:11;;;;;;;47.30;2.80;;;;;;;;;;5010405;28;20484;-46
2021/08/10 14:44:37;;;;;;;48.90;2.50;;;;;;;;;;5010322;28;20407;-46